createdAt,value
2018-03-20T00:02:07.233Z,99.90
2018-03-20T00:04:35.495Z,99.90
2018-03-20T00:07:03.759Z,99.90
2018-03-20T00:09:31.236Z,99.90
2018-03-20T00:11:59.500Z,99.90
2018-03-20T00:14:27.747Z,99.90
2018-03-20T00:16:55.250Z,99.90
2018-03-20T00:19:22.737Z,99.90
2018-03-20T00:21:50.254Z,99.90
2018-03-20T00:24:18.512Z,99.90
2018-03-20T00:26:47.495Z,99.90
2018-03-20T00:29:15.017Z,99.90
2018-03-20T00:31:42.502Z,99.90
2018-03-20T00:34:09.999Z,99.90
2018-03-20T00:36:38.251Z,99.90
2018-03-20T00:39:05.859Z,99.90
2018-03-20T00:41:33.335Z,99.90
2018-03-20T00:44:00.851Z,99.90
2018-03-20T00:46:28.339Z,99.90
2018-03-20T00:48:55.835Z,99.90
2018-03-20T00:51:23.336Z,99.90
2018-03-20T00:53:50.839Z,99.90
2018-03-20T00:56:18.348Z,99.90
2018-03-20T00:58:45.915Z,99.90
2018-03-20T01:01:13.430Z,99.90
2018-03-20T01:03:41.696Z,99.90
2018-03-20T01:06:09.175Z,99.90
2018-03-20T01:08:36.659Z,99.90
2018-03-20T01:11:04.156Z,99.90
2018-03-20T01:13:32.399Z,99.90
2018-03-20T01:15:59.895Z,99.90
2018-03-20T01:18:27.375Z,99.90
2018-03-20T01:20:54.871Z,99.90
2018-03-20T01:23:22.351Z,99.90
2018-03-20T01:25:49.868Z,99.90
2018-03-20T01:28:17.345Z,99.90
2018-03-20T01:30:44.844Z,99.90
2018-03-20T01:33:13.091Z,99.90
2018-03-20T01:35:40.590Z,99.90
2018-03-20T01:38:08.073Z,99.90
2018-03-20T01:40:35.568Z,99.90
2018-03-20T01:43:03.811Z,99.90
2018-03-20T01:45:31.307Z,99.90
2018-03-20T01:47:59.552Z,99.90
2018-03-20T01:50:27.044Z,99.90
2018-03-20T01:53:07.748Z,99.90
2018-03-20T01:55:35.243Z,99.90
2018-03-20T01:58:02.728Z,99.90
2018-03-20T02:00:31.000Z,99.90
2018-03-20T02:02:59.255Z,99.90
2018-03-20T02:05:26.731Z,99.90
2018-03-20T02:07:54.987Z,99.90
2018-03-20T02:10:22.467Z,99.90
2018-03-20T02:12:50.726Z,99.90
2018-03-20T02:15:18.967Z,99.90
2018-03-20T02:17:46.470Z,99.90
2018-03-20T02:20:14.719Z,99.90
2018-03-20T02:22:42.211Z,99.90
2018-03-20T02:25:09.688Z,99.90
2018-03-20T02:27:37.183Z,99.90
2018-03-20T02:30:04.659Z,99.90
2018-03-20T02:32:32.945Z,99.90
2018-03-20T02:35:00.434Z,99.90
2018-03-20T02:37:27.911Z,99.90
2018-03-20T02:39:55.404Z,99.90
2018-03-20T02:42:23.651Z,99.90
2018-03-20T02:44:51.139Z,99.90
2018-03-20T02:47:19.384Z,99.90
2018-03-20T02:49:46.879Z,99.90
2018-03-20T02:52:17.773Z,99.90
2018-03-20T02:54:45.260Z,99.90
2018-03-20T02:57:13.515Z,99.90
2018-03-20T02:59:41.027Z,99.90
2018-03-20T03:02:08.515Z,99.90
2018-03-20T03:04:36.007Z,99.90
2018-03-20T03:07:03.504Z,99.90
2018-03-20T03:09:30.995Z,99.90
2018-03-20T03:11:58.486Z,99.90
2018-03-20T03:14:25.987Z,99.90
2018-03-20T03:16:53.523Z,99.90
2018-03-20T03:19:20.994Z,99.90
2018-03-20T03:21:48.495Z,99.90
2018-03-20T03:24:16.739Z,99.90
2018-03-20T03:26:44.231Z,99.90
2018-03-20T03:29:12.479Z,99.90
2018-03-20T03:31:39.979Z,99.90
2018-03-20T03:34:07.464Z,99.90
2018-03-20T03:36:34.966Z,99.90
2018-03-20T03:39:02.434Z,99.90
2018-03-20T03:41:30.694Z,99.90
2018-03-20T03:43:58.967Z,99.90
2018-03-20T03:46:27.235Z,99.90
2018-03-20T03:48:54.719Z,99.90
2018-03-20T03:51:22.215Z,99.90
2018-03-20T03:53:49.693Z,99.90
2018-03-20T03:56:17.187Z,99.90
2018-03-20T03:58:44.667Z,99.90
2018-03-20T04:01:12.151Z,99.90
2018-03-20T04:03:40.434Z,99.90
2018-03-20T04:06:07.935Z,99.90
2018-03-20T04:08:35.443Z,99.90
2018-03-20T04:11:02.968Z,99.90
2018-03-20T04:13:30.468Z,99.90
2018-03-20T04:15:57.950Z,99.90
2018-03-20T04:18:26.215Z,99.90
2018-03-20T04:20:54.459Z,99.90
2018-03-20T04:23:21.956Z,99.90
2018-03-20T04:25:50.194Z,99.90
2018-03-20T04:28:17.705Z,99.90
2018-03-20T04:30:45.174Z,99.90
2018-03-20T04:33:12.671Z,99.90
2018-03-20T04:35:41.660Z,99.90
2018-03-20T04:38:09.156Z,99.90
2018-03-20T04:40:36.633Z,99.90
2018-03-20T04:43:04.126Z,99.90
2018-03-20T04:45:31.604Z,99.90
2018-03-20T04:47:59.086Z,99.90
2018-03-20T04:50:26.592Z,99.90
2018-03-20T04:52:54.066Z,99.90
2018-03-20T04:55:21.568Z,99.90
2018-03-20T04:57:49.042Z,99.90
2018-03-20T05:00:16.539Z,99.90
2018-03-20T05:02:44.791Z,99.90
2018-03-20T05:05:12.292Z,99.90
2018-03-20T05:07:39.780Z,99.90
2018-03-20T05:10:07.268Z,99.90
2018-03-20T05:12:36.251Z,99.90
2018-03-20T05:15:03.775Z,99.90
2018-03-20T05:17:31.266Z,99.90
2018-03-20T05:20:01.434Z,99.90
2018-03-20T05:22:34.739Z,99.90
2018-03-20T05:25:02.262Z,99.90
2018-03-20T05:27:30.511Z,99.90
2018-03-20T05:29:57.995Z,99.90
2018-03-20T05:32:26.256Z,99.90
2018-03-20T05:34:53.751Z,99.90
2018-03-20T05:37:21.254Z,99.90
2018-03-20T05:39:48.776Z,99.90
2018-03-20T05:42:16.267Z,99.90
2018-03-20T05:44:43.752Z,99.90
2018-03-20T05:50:29.728Z,99.90
2018-03-20T05:52:57.219Z,99.90
2018-03-20T05:55:25.730Z,99.90
2018-03-20T05:57:53.231Z,99.90
2018-03-20T06:00:20.725Z,99.90
2018-03-20T06:02:48.231Z,99.90
2018-03-20T06:05:15.710Z,99.90
2018-03-20T06:07:43.980Z,99.90
2018-03-20T06:10:11.471Z,99.90
2018-03-20T06:12:38.951Z,99.90
2018-03-20T06:15:06.911Z,99.90
2018-03-20T06:17:34.386Z,99.90
2018-03-20T06:20:01.879Z,99.90
2018-03-20T06:22:29.360Z,99.90
2018-03-20T06:24:56.854Z,99.90
2018-03-20T06:27:24.392Z,99.90
2018-03-20T06:29:52.651Z,99.90
2018-03-20T06:32:20.892Z,99.90
2018-03-20T06:34:48.391Z,99.90
2018-03-20T06:37:15.870Z,99.90
2018-03-20T06:39:43.536Z,99.90
2018-03-20T06:42:11.029Z,99.90
2018-03-20T06:44:38.533Z,99.90
2018-03-20T06:47:06.774Z,99.90
2018-03-20T06:49:34.294Z,99.90
2018-03-20T06:52:01.777Z,99.90
2018-03-20T06:54:29.311Z,99.90
2018-03-20T06:56:56.807Z,99.90
2018-03-20T06:59:25.057Z,99.90
2018-03-20T07:01:52.568Z,99.90
2018-03-20T07:04:20.051Z,99.90
2018-03-20T07:06:47.555Z,99.90
2018-03-20T07:09:15.795Z,99.90
2018-03-20T07:11:43.275Z,99.90
2018-03-20T07:14:11.585Z,99.90
2018-03-20T07:16:40.093Z,99.90
2018-03-20T07:19:07.599Z,99.90
2018-03-20T07:21:36.757Z,99.90
2018-03-20T07:24:04.303Z,99.90
2018-03-20T07:26:31.773Z,99.90
2018-03-20T07:28:59.267Z,99.90
2018-03-20T07:31:27.560Z,99.90
2018-03-20T07:33:55.051Z,99.90
2018-03-20T07:36:28.124Z,99.90
2018-03-20T07:38:55.629Z,99.90
2018-03-20T07:41:23.111Z,99.90
2018-03-20T07:43:50.602Z,99.90
2018-03-20T07:46:18.079Z,99.90
2018-03-20T07:48:46.343Z,99.90
2018-03-20T07:51:13.827Z,99.90
2018-03-20T07:53:41.338Z,99.90
2018-03-20T07:56:08.843Z,99.90
2018-03-20T07:58:36.314Z,99.90
2018-03-20T08:01:03.815Z,99.90
2018-03-20T08:03:31.340Z,99.90
2018-03-20T08:05:58.898Z,99.90
2018-03-20T08:08:26.374Z,99.90
2018-03-20T08:10:53.871Z,99.90
2018-03-20T08:13:21.417Z,99.90
2018-03-20T08:15:49.679Z,99.90
2018-03-20T08:18:18.113Z,99.90
2018-03-20T08:20:46.448Z,99.90
2018-03-20T08:23:21.827Z,99.90
2018-03-20T08:25:50.093Z,99.90
2018-03-20T08:28:18.339Z,99.90
2018-03-20T08:30:45.840Z,99.90
2018-03-20T08:33:14.084Z,99.90
2018-03-20T08:35:41.587Z,99.90
2018-03-20T08:38:09.082Z,99.90
2018-03-20T08:40:36.560Z,99.90
2018-03-20T08:43:04.066Z,99.90
2018-03-20T08:45:31.542Z,99.90
2018-03-20T08:47:59.031Z,99.90
2018-03-20T08:50:27.293Z,99.90
2018-03-20T08:52:54.811Z,99.90
2018-03-20T08:55:22.299Z,99.90
2018-03-20T08:57:49.793Z,99.90
2018-03-20T09:00:17.264Z,99.90
2018-03-20T09:02:44.746Z,99.90
2018-03-20T09:05:12.990Z,99.90
2018-03-20T09:07:40.476Z,99.90
2018-03-20T09:10:07.956Z,99.90
2018-03-20T09:12:35.469Z,99.90
2018-03-20T09:15:02.932Z,99.90
2018-03-20T09:17:30.427Z,99.90
2018-03-20T09:19:57.899Z,99.90
2018-03-20T09:22:25.395Z,99.90
2018-03-20T09:24:52.867Z,99.90
2018-03-20T09:27:20.332Z,99.90
2018-03-20T09:29:48.581Z,99.90
2018-03-20T09:32:16.047Z,99.90
2018-03-20T09:34:43.546Z,99.90
2018-03-20T09:37:11.023Z,99.90
2018-03-20T09:39:38.524Z,99.90
2018-03-20T09:42:06.759Z,99.90
2018-03-20T09:44:34.247Z,99.90
2018-03-20T09:47:01.716Z,99.90
2018-03-20T09:49:29.982Z,99.90
2018-03-20T09:51:58.223Z,99.90
2018-03-20T09:54:25.719Z,99.90
2018-03-20T09:56:53.183Z,99.90
2018-03-20T09:59:20.682Z,99.90
2018-03-20T10:01:48.155Z,99.90
2018-03-20T10:04:15.652Z,99.90
2018-03-20T10:06:43.895Z,99.90
2018-03-20T10:09:11.366Z,99.90
2018-03-20T10:11:39.623Z,99.90
2018-03-20T10:14:07.906Z,99.90
2018-03-20T10:16:35.351Z,99.90
2018-03-20T10:19:02.815Z,99.90
2018-03-20T10:21:30.302Z,99.90
2018-03-20T10:23:58.598Z,99.90
2018-03-20T10:26:26.083Z,99.90
2018-03-20T10:28:53.562Z,99.90
2018-03-20T10:31:21.047Z,99.90
2018-03-20T10:33:48.507Z,99.90
2018-03-20T10:36:15.987Z,99.90
2018-03-20T10:38:43.471Z,99.90
2018-03-20T10:41:10.951Z,99.90
2018-03-20T10:43:39.190Z,99.90
2018-03-20T10:46:06.671Z,99.90
2018-03-20T10:48:34.131Z,99.90
2018-03-20T10:51:02.367Z,99.90
2018-03-20T10:53:29.843Z,99.90
2018-03-20T10:55:57.362Z,99.90
2018-03-20T10:58:24.851Z,99.90
2018-03-20T11:00:52.318Z,99.90
2018-03-20T11:03:19.799Z,99.90
2018-03-20T11:05:48.027Z,99.90
2018-03-20T11:08:15.511Z,99.90
2018-03-20T11:10:42.977Z,99.90
2018-03-20T11:13:11.227Z,99.90
2018-03-20T11:15:38.695Z,99.90
2018-03-20T11:18:06.178Z,99.90
2018-03-20T11:20:34.416Z,99.90
2018-03-20T11:23:01.899Z,99.90
2018-03-20T11:25:30.127Z,99.90
2018-03-20T11:27:57.627Z,99.90
2018-03-20T11:30:25.856Z,99.90
2018-03-20T11:32:53.325Z,99.90
2018-03-20T11:35:20.815Z,99.90
2018-03-20T11:37:49.051Z,99.90
2018-03-20T11:40:16.531Z,99.90
2018-03-20T11:42:44.037Z,99.90
2018-03-20T11:45:11.507Z,99.90
2018-03-20T11:47:38.971Z,99.90
2018-03-20T11:50:06.452Z,99.90
2018-03-20T11:52:33.931Z,99.90
2018-03-20T11:55:02.178Z,99.90
2018-03-20T11:57:29.643Z,99.90
2018-03-20T11:59:57.127Z,99.90
2018-03-20T12:02:24.699Z,99.90
2018-03-20T12:04:52.226Z,99.90
2018-03-20T12:07:19.664Z,99.90
2018-03-20T12:09:48.937Z,99.90
2018-03-20T12:12:16.407Z,99.90
2018-03-20T12:14:43.887Z,99.90
2018-03-20T12:17:12.147Z,99.90
2018-03-20T12:19:39.626Z,99.90
2018-03-20T12:22:07.875Z,99.90
2018-03-20T12:24:35.339Z,99.90
2018-03-20T12:27:02.823Z,99.90
2018-03-20T12:29:30.308Z,99.90
2018-03-20T12:31:57.814Z,99.90
2018-03-20T12:34:25.271Z,99.90
2018-03-20T12:36:53.531Z,99.60
2018-03-20T12:39:20.991Z,99.70
2018-03-20T12:41:48.477Z,99.90
2018-03-20T12:44:16.706Z,98.60
2018-03-20T12:46:44.234Z,98.60
2018-03-20T12:49:11.695Z,99.90
2018-03-20T12:51:39.183Z,99.20
2018-03-20T12:54:06.668Z,95.00
2018-03-20T12:56:34.899Z,97.40
2018-03-20T12:59:02.391Z,97.40
2018-03-20T13:01:30.664Z,95.40
2018-03-20T13:03:58.121Z,95.10
2018-03-20T13:06:26.355Z,95.30
2018-03-20T13:08:53.845Z,94.90
2018-03-20T13:11:22.075Z,96.00
2018-03-20T13:13:49.557Z,95.40
2018-03-20T13:16:17.786Z,93.60
2018-03-20T13:18:45.533Z,93.60
2018-03-20T13:21:12.999Z,93.40
2018-03-20T13:23:41.247Z,88.80
2018-03-20T13:26:10.437Z,89.10
2018-03-20T13:28:37.944Z,89.30
2018-03-20T13:31:06.175Z,88.20
2018-03-20T13:33:33.647Z,86.40
2018-03-20T13:36:02.641Z,90.80
2018-03-20T13:38:30.143Z,90.90
2018-03-20T13:40:57.631Z,81.80
2018-03-20T13:43:25.095Z,84.80
2018-03-20T13:45:52.574Z,84.10
2018-03-20T13:48:20.038Z,87.60
2018-03-20T13:50:47.519Z,87.50
2018-03-20T13:53:31.727Z,85.00
2018-03-20T13:55:59.211Z,88.50
2018-03-20T13:58:26.675Z,79.70
2018-03-20T14:00:54.168Z,84.00
2018-03-20T14:03:22.404Z,79.60
2018-03-20T14:05:49.903Z,77.00
2018-03-20T14:08:18.139Z,82.00
2018-03-20T14:10:45.790Z,83.30
2018-03-20T14:13:13.318Z,77.10
2018-03-20T14:15:40.859Z,77.20
2018-03-20T14:18:08.323Z,80.20
2018-03-20T14:20:35.842Z,77.70
2018-03-20T14:23:04.068Z,78.80
2018-03-20T14:25:31.531Z,80.90
2018-03-20T14:27:59.778Z,78.60
2018-03-20T14:30:27.258Z,78.60
2018-03-20T14:32:54.738Z,83.20
2018-03-20T14:35:22.970Z,84.00
2018-03-20T14:37:50.454Z,84.20
2018-03-20T14:40:17.915Z,88.20
2018-03-20T14:42:45.396Z,78.00
2018-03-20T14:45:12.856Z,77.50
2018-03-20T14:47:41.106Z,80.70
2018-03-20T14:50:08.596Z,81.00
2018-03-20T14:52:36.083Z,77.20
2018-03-20T14:55:04.320Z,72.90
2018-03-20T14:57:32.567Z,78.70
2018-03-20T15:00:00.050Z,78.70
2018-03-20T15:02:28.313Z,74.50
2018-03-20T15:04:56.551Z,57.60
2018-03-20T15:07:24.033Z,57.50
2018-03-20T15:09:51.519Z,64.80
2018-03-20T15:12:19.001Z,72.50
2018-03-20T15:14:46.511Z,76.80
2018-03-20T15:17:14.003Z,71.60
2018-03-20T15:19:41.490Z,63.10
2018-03-20T15:22:08.958Z,72.00
2018-03-20T15:24:37.883Z,66.60
2018-03-20T15:27:05.371Z,61.30
2018-03-20T15:29:32.863Z,61.30
2018-03-20T15:32:01.112Z,72.40
2018-03-20T15:34:28.626Z,72.60
2018-03-20T15:36:56.087Z,79.90
2018-03-20T15:39:23.583Z,81.80
2018-03-20T15:41:51.043Z,83.10
2018-03-20T15:44:18.542Z,82.20
2018-03-20T15:46:46.008Z,82.90
2018-03-20T15:49:13.483Z,85.40
2018-03-20T15:51:40.976Z,82.50
2018-03-20T15:54:09.223Z,84.50
2018-03-20T15:56:36.703Z,85.00
2018-03-20T15:59:04.952Z,86.80
2018-03-20T16:01:32.431Z,86.70
2018-03-20T16:03:59.899Z,84.70
2018-03-20T16:06:27.412Z,89.30
2018-03-20T16:08:55.650Z,81.60
2018-03-20T16:11:23.140Z,81.60
2018-03-20T16:13:50.602Z,83.80
2018-03-20T16:16:18.867Z,85.50
2018-03-20T16:18:47.123Z,88.60
2018-03-20T16:21:14.611Z,88.60
2018-03-20T16:23:42.839Z,85.80
2018-03-20T16:26:11.100Z,89.90
2018-03-20T16:28:38.575Z,89.60
2018-03-20T16:31:06.046Z,86.70
2018-03-20T16:33:33.528Z,89.90
2018-03-20T16:36:01.762Z,82.10
2018-03-20T16:38:29.247Z,82.00
2018-03-20T16:40:56.715Z,82.30
2018-03-20T16:43:24.959Z,86.50
2018-03-20T16:45:52.501Z,86.50
2018-03-20T16:48:20.699Z,86.60
2018-03-20T16:50:48.163Z,86.50
2018-03-20T16:53:15.642Z,87.80
2018-03-20T16:55:43.111Z,89.60
2018-03-20T16:58:10.651Z,90.60
2018-03-20T17:00:38.066Z,87.80
2018-03-20T17:03:05.551Z,86.40
2018-03-20T17:05:33.784Z,91.10
2018-03-20T17:08:01.268Z,91.10
2018-03-20T17:10:28.734Z,91.70
2018-03-20T17:12:56.962Z,92.20
2018-03-20T17:15:24.459Z,92.20
2018-03-20T17:17:51.924Z,91.90
2018-03-20T17:20:19.407Z,93.00
2018-03-20T17:22:46.911Z,94.40
2018-03-20T17:25:14.374Z,94.40
2018-03-20T17:27:42.631Z,94.20
2018-03-20T17:30:10.115Z,94.30
2018-03-20T17:32:37.576Z,94.10
2018-03-20T17:35:05.839Z,94.10
2018-03-20T17:37:33.306Z,94.10
2018-03-20T17:40:01.554Z,94.40
2018-03-20T17:42:29.031Z,94.40
2018-03-20T17:44:56.511Z,94.00
2018-03-20T17:47:24.019Z,94.20
2018-03-20T17:49:51.503Z,94.80
2018-03-20T17:52:19.770Z,95.20
2018-03-20T17:54:47.259Z,95.20
2018-03-20T17:57:14.727Z,95.10
2018-03-20T17:59:42.196Z,95.10
2018-03-20T18:02:09.686Z,95.30
2018-03-20T18:04:37.147Z,95.70
2018-03-20T18:07:05.403Z,95.40
2018-03-20T18:09:32.871Z,95.50
2018-03-20T18:12:00.411Z,95.30
2018-03-20T18:14:27.886Z,95.30
2018-03-20T18:16:55.359Z,94.90
2018-03-20T18:19:22.845Z,94.80
2018-03-20T18:21:50.454Z,94.60
2018-03-20T18:24:17.949Z,94.20
2018-03-20T18:26:45.431Z,94.60
2018-03-20T18:29:12.931Z,94.50
2018-03-20T18:31:40.398Z,94.90
2018-03-20T18:34:08.627Z,94.80
2018-03-20T18:36:36.111Z,94.70
2018-03-20T18:39:03.597Z,94.90
2018-03-20T18:41:31.866Z,95.50
2018-03-20T18:44:00.110Z,96.20
2018-03-20T18:46:27.586Z,96.20
2018-03-20T18:48:55.185Z,97.00
2018-03-20T18:51:22.651Z,97.60
2018-03-20T18:53:50.162Z,97.90
2018-03-20T18:56:18.415Z,98.40
2018-03-20T18:58:45.882Z,98.40
2018-03-20T19:01:13.371Z,98.50
2018-03-20T19:03:40.858Z,98.30
2018-03-20T19:06:08.357Z,98.20
2018-03-20T19:08:36.600Z,97.70
2018-03-20T19:11:04.083Z,97.70
2018-03-20T19:13:31.566Z,97.90
2018-03-20T19:15:59.972Z,98.10
2018-03-20T19:18:27.462Z,97.40
2018-03-20T19:20:54.995Z,97.50
2018-03-20T19:23:22.488Z,97.70
2018-03-20T19:25:50.044Z,97.90
2018-03-20T19:28:18.398Z,97.50
2018-03-20T19:30:45.934Z,97.30
2018-03-20T19:33:14.223Z,96.90
2018-03-20T19:35:42.494Z,96.80
2018-03-20T19:38:11.495Z,96.90
2018-03-20T19:40:39.023Z,96.90
2018-03-20T19:43:06.527Z,97.30
2018-03-20T19:45:34.039Z,97.60
2018-03-20T19:48:01.578Z,97.50
2018-03-20T19:50:29.879Z,98.40
2018-03-20T19:52:57.448Z,98.40
2018-03-20T19:55:25.087Z,98.90
2018-03-20T19:57:52.656Z,99.40
2018-03-20T20:00:20.189Z,99.50
2018-03-20T20:02:47.746Z,99.70
2018-03-20T20:05:15.258Z,99.80
2018-03-20T20:07:43.544Z,99.90
2018-03-20T20:10:11.121Z,99.90
2018-03-20T20:12:38.609Z,99.90
2018-03-20T20:15:06.115Z,99.90
2018-03-20T20:17:34.398Z,99.90
2018-03-20T20:20:02.761Z,99.90
2018-03-20T20:22:31.052Z,99.90
2018-03-20T20:24:59.348Z,99.90
2018-03-20T20:27:26.863Z,99.90
2018-03-20T20:29:54.423Z,99.90
2018-03-20T20:32:21.955Z,99.90
2018-03-20T20:34:49.516Z,99.90
2018-03-20T20:37:17.020Z,99.90
2018-03-20T20:39:45.296Z,99.90
2018-03-20T20:42:12.766Z,99.90
2018-03-20T20:44:41.190Z,99.90
2018-03-20T20:47:08.700Z,99.90
2018-03-20T20:49:36.185Z,99.90
2018-03-20T20:52:03.657Z,99.90
2018-03-20T20:54:31.914Z,99.90
2018-03-20T20:56:59.404Z,99.90
2018-03-20T20:59:26.899Z,99.90
2018-03-20T21:01:54.398Z,99.90
2018-03-20T21:04:21.954Z,99.90
2018-03-20T21:06:49.463Z,99.90
2018-03-20T21:09:16.958Z,99.90
2018-03-20T21:11:44.464Z,99.90
2018-03-20T21:14:12.702Z,99.90
2018-03-20T21:16:41.192Z,99.90
2018-03-20T21:19:08.808Z,99.90
2018-03-20T21:21:36.284Z,99.90
2018-03-20T21:24:03.804Z,99.90
2018-03-20T21:26:31.292Z,99.90
2018-03-20T21:28:58.785Z,99.90
2018-03-20T21:31:26.295Z,99.90
2018-03-20T21:33:53.801Z,99.90
2018-03-20T21:36:22.125Z,99.90
2018-03-20T21:38:49.572Z,99.90
2018-03-20T21:41:17.082Z,99.90
2018-03-20T21:43:45.360Z,99.90
2018-03-20T21:46:13.635Z,99.90
2018-03-20T21:48:41.127Z,99.90
2018-03-20T21:51:08.641Z,99.90
2018-03-20T21:53:36.140Z,99.90
2018-03-20T21:56:03.655Z,99.90
2018-03-20T21:58:31.152Z,99.90
2018-03-20T22:00:58.663Z,99.90
2018-03-20T22:03:26.917Z,99.90
2018-03-20T22:05:54.413Z,99.90
2018-03-20T22:08:22.659Z,99.90
2018-03-20T22:10:50.134Z,99.90
2018-03-20T22:13:17.622Z,99.90
2018-03-20T22:15:45.087Z,99.90
2018-03-20T22:18:12.600Z,99.90
2018-03-20T22:20:40.090Z,99.90
2018-03-20T22:23:07.904Z,99.90
2018-03-20T22:25:35.383Z,99.90
2018-03-20T22:28:03.656Z,99.90
2018-03-20T22:30:31.163Z,99.90
2018-03-20T22:32:58.643Z,99.90
2018-03-20T22:35:26.118Z,99.90
2018-03-20T22:37:53.617Z,99.90
2018-03-20T22:40:21.095Z,99.90
2018-03-20T22:42:48.609Z,99.90
2018-03-20T22:45:16.884Z,99.90
2018-03-20T22:47:45.150Z,99.90
2018-03-20T22:50:13.403Z,99.90
2018-03-20T22:52:40.903Z,99.90
2018-03-20T22:55:08.378Z,99.90
2018-03-20T22:57:35.872Z,99.90
2018-03-20T23:00:03.363Z,99.90
2018-03-20T23:02:30.842Z,99.90
2018-03-20T23:04:58.334Z,99.90
2018-03-20T23:07:25.815Z,99.90
2018-03-20T23:09:53.317Z,99.90
2018-03-20T23:12:20.799Z,99.90
2018-03-20T23:14:48.295Z,99.90
2018-03-20T23:17:16.542Z,99.90
2018-03-20T23:19:44.043Z,99.90
2018-03-20T23:22:11.519Z,99.90
2018-03-20T23:24:39.068Z,99.90
2018-03-20T23:27:06.543Z,99.90
2018-03-20T23:29:34.050Z,99.90
2018-03-20T23:32:01.528Z,99.90
2018-03-20T23:34:29.016Z,99.90
2018-03-20T23:36:56.514Z,99.90
2018-03-20T23:39:24.756Z,99.90
2018-03-20T23:41:52.251Z,99.90
2018-03-20T23:44:20.507Z,99.90
2018-03-20T23:46:48.007Z,99.90
2018-03-20T23:49:15.493Z,99.90
2018-03-20T23:51:42.985Z,99.90
2018-03-20T23:54:11.231Z,99.90
2018-03-20T23:56:38.738Z,99.90
2018-03-20T23:59:06.224Z,99.90
